sensor_id;sensor_type;location;lat;lon;timestamp;temperature;humidity
69189;DHT22;56302;52.322;5.926;2022-09-09T00:07:25;14.90;90.90
69189;DHT22;56302;52.322;5.926;2022-09-09T00:15:27;14.90;90.80
69189;DHT22;56302;52.322;5.926;2022-09-09T00:20:52;14.90;90.50
69189;DHT22;56302;52.322;5.926;2022-09-09T00:23:33;14.90;90.80
69189;DHT22;56302;52.322;5.926;2022-09-09T00:28:29;14.90;90.50
69189;DHT22;56302;52.322;5.926;2022-09-09T00:31:07;14.80;90.40
69189;DHT22;56302;52.322;5.926;2022-09-09T00:33:36;14.80;90.70
69189;DHT22;56302;52.322;5.926;2022-09-09T00:36:03;14.80;90.90
69189;DHT22;56302;52.322;5.926;2022-09-09T00:38:35;14.80;90.80
69189;DHT22;56302;52.322;5.926;2022-09-09T00:43:56;14.70;91.10
69189;DHT22;56302;52.322;5.926;2022-09-09T00:46:40;14.70;90.80
69189;DHT22;56302;52.322;5.926;2022-09-09T00:52:03;14.70;90.80
69189;DHT22;56302;52.322;5.926;2022-09-09T00:57:31;14.70;90.90
69189;DHT22;56302;52.322;5.926;2022-09-09T01:05:24;14.70;91.30
69189;DHT22;56302;52.322;5.926;2022-09-09T01:07:53;14.60;90.90
69189;DHT22;56302;52.322;5.926;2022-09-09T01:10:51;14.60;91.20
69189;DHT22;56302;52.322;5.926;2022-09-09T01:15:53;14.50;92.10
69189;DHT22;56302;52.322;5.926;2022-09-09T01:18:21;14.50;92.30
69189;DHT22;56302;52.322;5.926;2022-09-09T01:23:55;14.50;92.30
69189;DHT22;56302;52.322;5.926;2022-09-09T01:26:32;14.50;91.90
69189;DHT22;56302;52.322;5.926;2022-09-09T01:28:59;14.50;92.40
69189;DHT22;56302;52.322;5.926;2022-09-09T01:31:38;14.50;92.60
69189;DHT22;56302;52.322;5.926;2022-09-09T01:34:15;14.50;92.70
69189;DHT22;56302;52.322;5.926;2022-09-09T01:36:46;14.50;92.70
69189;DHT22;56302;52.322;5.926;2022-09-09T01:39:15;14.50;92.40
69189;DHT22;56302;52.322;5.926;2022-09-09T01:41:41;14.50;92.70
69189;DHT22;56302;52.322;5.926;2022-09-09T01:44:07;14.50;92.60
69189;DHT22;56302;52.322;5.926;2022-09-09T01:46:33;14.40;92.60
69189;DHT22;56302;52.322;5.926;2022-09-09T01:49:00;14.40;92.40
69189;DHT22;56302;52.322;5.926;2022-09-09T01:51:27;14.40;92.60
69189;DHT22;56302;52.322;5.926;2022-09-09T01:53:53;14.30;92.60
69189;DHT22;56302;52.322;5.926;2022-09-09T01:56:40;14.40;92.50
69189;DHT22;56302;52.322;5.926;2022-09-09T02:02:17;14.40;92.10
69189;DHT22;56302;52.322;5.926;2022-09-09T02:04:50;14.30;92.40
69189;DHT22;56302;52.322;5.926;2022-09-09T02:07:49;14.30;92.50
69189;DHT22;56302;52.322;5.926;2022-09-09T02:10:24;14.20;92.90
69189;DHT22;56302;52.322;5.926;2022-09-09T02:12:58;14.30;92.60
69189;DHT22;56302;52.322;5.926;2022-09-09T02:15:31;14.30;92.50
69189;DHT22;56302;52.322;5.926;2022-09-09T02:17:58;14.20;92.50
69189;DHT22;56302;52.322;5.926;2022-09-09T02:20:27;14.20;92.60
69189;DHT22;56302;52.322;5.926;2022-09-09T02:22:56;14.20;92.50
69189;DHT22;56302;52.322;5.926;2022-09-09T02:25:24;14.10;93.00
69189;DHT22;56302;52.322;5.926;2022-09-09T02:27:51;14.10;92.80
69189;DHT22;56302;52.322;5.926;2022-09-09T02:30:18;14.10;92.90
69189;DHT22;56302;52.322;5.926;2022-09-09T02:32:44;14.10;92.40
69189;DHT22;56302;52.322;5.926;2022-09-09T02:35:14;14.00;92.60
69189;DHT22;56302;52.322;5.926;2022-09-09T02:37:42;14.00;92.70
69189;DHT22;56302;52.322;5.926;2022-09-09T02:40:10;14.00;92.80
69189;DHT22;56302;52.322;5.926;2022-09-09T02:42:40;13.90;92.90
69189;DHT22;56302;52.322;5.926;2022-09-09T02:45:08;13.80;93.00
69189;DHT22;56302;52.322;5.926;2022-09-09T02:47:43;13.80;92.90
69189;DHT22;56302;52.322;5.926;2022-09-09T02:50:24;13.80;92.70
69189;DHT22;56302;52.322;5.926;2022-09-09T02:53:18;13.80;92.40
69189;DHT22;56302;52.322;5.926;2022-09-09T02:55:54;13.80;92.20
69189;DHT22;56302;52.322;5.926;2022-09-09T02:58:22;13.70;92.30
69189;DHT22;56302;52.322;5.926;2022-09-09T03:00:49;13.70;92.50
69189;DHT22;56302;52.322;5.926;2022-09-09T03:03:17;13.70;92.50
69189;DHT22;56302;52.322;5.926;2022-09-09T03:05:43;13.60;92.70
69189;DHT22;56302;52.322;5.926;2022-09-09T03:08:10;13.60;92.70
69189;DHT22;56302;52.322;5.926;2022-09-09T03:10:35;13.60;92.80
69189;DHT22;56302;52.322;5.926;2022-09-09T03:13:02;13.60;92.70
69189;DHT22;56302;52.322;5.926;2022-09-09T03:15:29;13.60;92.50
69189;DHT22;56302;52.322;5.926;2022-09-09T03:17:57;13.60;92.20
69189;DHT22;56302;52.322;5.926;2022-09-09T03:20:24;13.60;92.30
69189;DHT22;56302;52.322;5.926;2022-09-09T03:22:51;13.60;92.10
69189;DHT22;56302;52.322;5.926;2022-09-09T03:25:17;13.50;92.00
69189;DHT22;56302;52.322;5.926;2022-09-09T03:27:43;13.50;92.00
69189;DHT22;56302;52.322;5.926;2022-09-09T03:30:09;13.40;92.40
69189;DHT22;56302;52.322;5.926;2022-09-09T03:32:34;13.40;92.50
69189;DHT22;56302;52.322;5.926;2022-09-09T03:35:00;13.40;92.60
69189;DHT22;56302;52.322;5.926;2022-09-09T03:37:26;13.40;92.50
69189;DHT22;56302;52.322;5.926;2022-09-09T03:39:51;13.40;92.50
69189;DHT22;56302;52.322;5.926;2022-09-09T03:42:19;13.30;92.70
69189;DHT22;56302;52.322;5.926;2022-09-09T03:44:48;13.30;92.60
69189;DHT22;56302;52.322;5.926;2022-09-09T03:47:20;13.30;92.50
69189;DHT22;56302;52.322;5.926;2022-09-09T03:49:47;13.30;92.30
69189;DHT22;56302;52.322;5.926;2022-09-09T03:52:14;13.40;92.10
69189;DHT22;56302;52.322;5.926;2022-09-09T03:54:40;13.30;92.40
69189;DHT22;56302;52.322;5.926;2022-09-09T03:57:06;13.20;92.80
69189;DHT22;56302;52.322;5.926;2022-09-09T03:59:32;13.20;92.90
69189;DHT22;56302;52.322;5.926;2022-09-09T04:01:57;13.20;92.80
69189;DHT22;56302;52.322;5.926;2022-09-09T04:04:24;13.20;93.20
69189;DHT22;56302;52.322;5.926;2022-09-09T04:06:51;13.10;93.10
69189;DHT22;56302;52.322;5.926;2022-09-09T04:09:17;13.20;93.10
69189;DHT22;56302;52.322;5.926;2022-09-09T04:11:43;13.20;92.80
69189;DHT22;56302;52.322;5.926;2022-09-09T04:14:08;13.20;93.00
69189;DHT22;56302;52.322;5.926;2022-09-09T04:16:34;13.20;93.40
69189;DHT22;56302;52.322;5.926;2022-09-09T04:19:03;13.20;93.40
69189;DHT22;56302;52.322;5.926;2022-09-09T04:21:29;13.20;93.30
69189;DHT22;56302;52.322;5.926;2022-09-09T04:23:55;13.20;93.60
69189;DHT22;56302;52.322;5.926;2022-09-09T04:26:20;13.20;93.60
69189;DHT22;56302;52.322;5.926;2022-09-09T04:28:46;13.10;93.50
69189;DHT22;56302;52.322;5.926;2022-09-09T04:31:20;13.20;93.60
69189;DHT22;56302;52.322;5.926;2022-09-09T04:33:48;13.10;93.70
69189;DHT22;56302;52.322;5.926;2022-09-09T04:36:13;13.10;93.70
69189;DHT22;56302;52.322;5.926;2022-09-09T04:38:39;13.20;93.60
69189;DHT22;56302;52.322;5.926;2022-09-09T04:41:05;13.20;93.80
69189;DHT22;56302;52.322;5.926;2022-09-09T04:43:31;13.20;93.70
69189;DHT22;56302;52.322;5.926;2022-09-09T04:45:57;13.20;93.90
69189;DHT22;56302;52.322;5.926;2022-09-09T04:48:24;13.20;93.90
69189;DHT22;56302;52.322;5.926;2022-09-09T04:51:01;13.20;93.90
69189;DHT22;56302;52.322;5.926;2022-09-09T04:53:27;13.20;94.10
69189;DHT22;56302;52.322;5.926;2022-09-09T04:56:10;13.20;94.20
69189;DHT22;56302;52.322;5.926;2022-09-09T04:58:36;13.20;94.20
69189;DHT22;56302;52.322;5.926;2022-09-09T05:01:07;13.20;93.90
69189;DHT22;56302;52.322;5.926;2022-09-09T05:03:33;13.20;94.00
69189;DHT22;56302;52.322;5.926;2022-09-09T05:06:18;13.20;94.10
69189;DHT22;56302;52.322;5.926;2022-09-09T05:08:44;13.20;94.30
69189;DHT22;56302;52.322;5.926;2022-09-09T05:11:30;13.20;94.60
69189;DHT22;56302;52.322;5.926;2022-09-09T05:13:56;13.20;94.70
69189;DHT22;56302;52.322;5.926;2022-09-09T05:16:22;13.20;94.60
69189;DHT22;56302;52.322;5.926;2022-09-09T05:18:48;13.20;94.60
69189;DHT22;56302;52.322;5.926;2022-09-09T05:21:16;13.20;94.50
69189;DHT22;56302;52.322;5.926;2022-09-09T05:23:41;13.20;94.40
69189;DHT22;56302;52.322;5.926;2022-09-09T05:26:11;13.20;94.50
69189;DHT22;56302;52.322;5.926;2022-09-09T05:28:37;13.20;94.60
69189;DHT22;56302;52.322;5.926;2022-09-09T05:31:05;13.20;94.70
69189;DHT22;56302;52.322;5.926;2022-09-09T05:33:33;13.20;94.90
69189;DHT22;56302;52.322;5.926;2022-09-09T05:36:05;13.20;95.00
69189;DHT22;56302;52.322;5.926;2022-09-09T05:38:31;13.20;94.80
69189;DHT22;56302;52.322;5.926;2022-09-09T05:40:58;13.20;94.60
69189;DHT22;56302;52.322;5.926;2022-09-09T05:43:25;13.20;94.50
69189;DHT22;56302;52.322;5.926;2022-09-09T05:46:08;13.30;94.50
69189;DHT22;56302;52.322;5.926;2022-09-09T05:48:39;13.20;94.50
69189;DHT22;56302;52.322;5.926;2022-09-09T05:51:07;13.30;94.40
69189;DHT22;56302;52.322;5.926;2022-09-09T05:53:33;13.30;94.40
69189;DHT22;56302;52.322;5.926;2022-09-09T05:56:04;13.30;94.50
69189;DHT22;56302;52.322;5.926;2022-09-09T05:58:34;13.30;94.50
69189;DHT22;56302;52.322;5.926;2022-09-09T06:01:08;13.30;94.30
69189;DHT22;56302;52.322;5.926;2022-09-09T06:03:35;13.30;94.30
69189;DHT22;56302;52.322;5.926;2022-09-09T06:06:02;13.30;94.40
69189;DHT22;56302;52.322;5.926;2022-09-09T06:08:31;13.30;94.40
69189;DHT22;56302;52.322;5.926;2022-09-09T06:11:02;13.30;94.40
69189;DHT22;56302;52.322;5.926;2022-09-09T06:13:28;13.30;94.40
69189;DHT22;56302;52.322;5.926;2022-09-09T06:15:54;13.40;94.40
69189;DHT22;56302;52.322;5.926;2022-09-09T06:18:20;13.40;94.30
69189;DHT22;56302;52.322;5.926;2022-09-09T06:20:59;13.50;93.90
69189;DHT22;56302;52.322;5.926;2022-09-09T06:23:26;13.50;94.10
69189;DHT22;56302;52.322;5.926;2022-09-09T06:26:00;13.60;94.30
69189;DHT22;56302;52.322;5.926;2022-09-09T06:28:25;13.60;94.40
69189;DHT22;56302;52.322;5.926;2022-09-09T06:31:06;13.70;94.20
69189;DHT22;56302;52.322;5.926;2022-09-09T06:33:35;13.80;94.30
69189;DHT22;56302;52.322;5.926;2022-09-09T06:36:03;13.80;94.20
69189;DHT22;56302;52.322;5.926;2022-09-09T06:38:29;13.80;94.40
69189;DHT22;56302;52.322;5.926;2022-09-09T06:40:56;13.90;94.40
69189;DHT22;56302;52.322;5.926;2022-09-09T06:43:24;14.00;94.20
69189;DHT22;56302;52.322;5.926;2022-09-09T06:46:17;14.00;94.30
69189;DHT22;56302;52.322;5.926;2022-09-09T06:48:44;14.10;94.30
69189;DHT22;56302;52.322;5.926;2022-09-09T06:51:15;14.30;94.40
69189;DHT22;56302;52.322;5.926;2022-09-09T06:53:42;14.30;94.10
69189;DHT22;56302;52.322;5.926;2022-09-09T06:56:31;14.40;94.00
69189;DHT22;56302;52.322;5.926;2022-09-09T06:58:59;14.60;94.00
69189;DHT22;56302;52.322;5.926;2022-09-09T07:01:28;14.70;94.00
69189;DHT22;56302;52.322;5.926;2022-09-09T07:03:56;15.00;93.90
69189;DHT22;56302;52.322;5.926;2022-09-09T07:06:30;15.20;93.20
69189;DHT22;56302;52.322;5.926;2022-09-09T07:08:58;15.60;92.30
69189;DHT22;56302;52.322;5.926;2022-09-09T07:11:26;15.90;91.40
69189;DHT22;56302;52.322;5.926;2022-09-09T07:13:53;15.80;90.30
69189;DHT22;56302;52.322;5.926;2022-09-09T07:16:20;15.70;91.20
69189;DHT22;56302;52.322;5.926;2022-09-09T07:18:48;15.70;91.40
69189;DHT22;56302;52.322;5.926;2022-09-09T07:21:16;15.90;91.40
69189;DHT22;56302;52.322;5.926;2022-09-09T07:23:42;15.90;91.00
69189;DHT22;56302;52.322;5.926;2022-09-09T07:26:15;15.80;91.00
69189;DHT22;56302;52.322;5.926;2022-09-09T07:28:41;15.90;91.10
69189;DHT22;56302;52.322;5.926;2022-09-09T07:31:13;15.80;90.90
69189;DHT22;56302;52.322;5.926;2022-09-09T07:33:39;15.80;90.70
69189;DHT22;56302;52.322;5.926;2022-09-09T07:36:10;15.80;90.50
69189;DHT22;56302;52.322;5.926;2022-09-09T07:38:43;15.80;90.80
69189;DHT22;56302;52.322;5.926;2022-09-09T07:41:13;15.90;90.40
69189;DHT22;56302;52.322;5.926;2022-09-09T07:43:40;15.90;91.00
69189;DHT22;56302;52.322;5.926;2022-09-09T07:46:06;16.00;90.90
69189;DHT22;56302;52.322;5.926;2022-09-09T07:48:32;16.10;90.70
69189;DHT22;56302;52.322;5.926;2022-09-09T07:51:28;16.10;90.10
69189;DHT22;56302;52.322;5.926;2022-09-09T07:53:58;16.00;89.90
69189;DHT22;56302;52.322;5.926;2022-09-09T07:56:24;16.00;90.10
69189;DHT22;56302;52.322;5.926;2022-09-09T07:58:52;16.00;90.20
69189;DHT22;56302;52.322;5.926;2022-09-09T08:01:24;16.10;90.50
69189;DHT22;56302;52.322;5.926;2022-09-09T08:03:59;16.20;89.90
69189;DHT22;56302;52.322;5.926;2022-09-09T08:06:25;16.20;89.40
69189;DHT22;56302;52.322;5.926;2022-09-09T08:08:52;16.10;89.40
69189;DHT22;56302;52.322;5.926;2022-09-09T08:11:18;16.10;89.50
69189;DHT22;56302;52.322;5.926;2022-09-09T08:13:44;16.20;89.50
69189;DHT22;56302;52.322;5.926;2022-09-09T08:16:15;16.30;89.30
69189;DHT22;56302;52.322;5.926;2022-09-09T08:18:41;16.40;89.20
69189;DHT22;56302;52.322;5.926;2022-09-09T08:21:17;16.50;88.20
69189;DHT22;56302;52.322;5.926;2022-09-09T08:23:44;16.50;88.70
69189;DHT22;56302;52.322;5.926;2022-09-09T08:26:12;16.50;88.00
69189;DHT22;56302;52.322;5.926;2022-09-09T08:28:39;16.50;88.00
69189;DHT22;56302;52.322;5.926;2022-09-09T08:33:35;16.40;88.00
69189;DHT22;56302;52.322;5.926;2022-09-09T08:36:04;16.40;87.70
69189;DHT22;56302;52.322;5.926;2022-09-09T08:38:30;16.40;88.00
69189;DHT22;56302;52.322;5.926;2022-09-09T08:43:47;16.60;87.90
69189;DHT22;56302;52.322;5.926;2022-09-09T08:46:32;17.00;86.90
69189;DHT22;56302;52.322;5.926;2022-09-09T08:49:53;17.40;85.70
69189;DHT22;56302;52.322;5.926;2022-09-09T08:51:54;17.60;84.50
69189;DHT22;56302;52.322;5.926;2022-09-09T08:54:21;17.60;84.00
69189;DHT22;56302;52.322;5.926;2022-09-09T08:56:47;17.40;83.70
69189;DHT22;56302;52.322;5.926;2022-09-09T08:59:16;17.30;85.00
69189;DHT22;56302;52.322;5.926;2022-09-09T09:02:08;17.20;84.30
69189;DHT22;56302;52.322;5.926;2022-09-09T09:04:56;17.10;84.80
69189;DHT22;56302;52.322;5.926;2022-09-09T09:07:32;17.00;84.40
69189;DHT22;56302;52.322;5.926;2022-09-09T09:10:02;17.00;84.60
69189;DHT22;56302;52.322;5.926;2022-09-09T09:12:35;17.00;84.50
69189;DHT22;56302;52.322;5.926;2022-09-09T09:15:14;16.80;84.90
69189;DHT22;56302;52.322;5.926;2022-09-09T09:17:42;16.80;84.50
69189;DHT22;56302;52.322;5.926;2022-09-09T09:20:13;16.70;84.60
69189;DHT22;56302;52.322;5.926;2022-09-09T09:22:48;16.80;85.00
69189;DHT22;56302;52.322;5.926;2022-09-09T09:25:38;16.90;84.90
69189;DHT22;56302;52.322;5.926;2022-09-09T09:28:21;17.00;84.30
69189;DHT22;56302;52.322;5.926;2022-09-09T09:33:42;17.00;84.20
69189;DHT22;56302;52.322;5.926;2022-09-09T09:36:13;17.00;84.60
69189;DHT22;56302;52.322;5.926;2022-09-09T09:38:58;16.90;84.50
69189;DHT22;56302;52.322;5.926;2022-09-09T09:43:58;16.90;84.90
69189;DHT22;56302;52.322;5.926;2022-09-09T09:46:25;16.80;84.00
69189;DHT22;56302;52.322;5.926;2022-09-09T09:49:03;16.80;84.80
69189;DHT22;56302;52.322;5.926;2022-09-09T09:51:31;16.80;84.20
69189;DHT22;56302;52.322;5.926;2022-09-09T09:56:38;16.80;84.30
69189;DHT22;56302;52.322;5.926;2022-09-09T09:59:05;16.80;84.40
69189;DHT22;56302;52.322;5.926;2022-09-09T10:01:32;16.80;83.80
69189;DHT22;56302;52.322;5.926;2022-09-09T10:04:01;16.80;83.30
69189;DHT22;56302;52.322;5.926;2022-09-09T10:06:36;16.90;83.90
69189;DHT22;56302;52.322;5.926;2022-09-09T10:09:04;17.00;83.90
69189;DHT22;56302;52.322;5.926;2022-09-09T10:17:53;17.10;82.80
69189;DHT22;56302;52.322;5.926;2022-09-09T10:22:51;17.10;82.20
69189;DHT22;56302;52.322;5.926;2022-09-09T10:25:38;17.20;82.20
69189;DHT22;56302;52.322;5.926;2022-09-09T10:28:22;17.20;82.20
69189;DHT22;56302;52.322;5.926;2022-09-09T10:36:12;17.70;80.40
69189;DHT22;56302;52.322;5.926;2022-09-09T10:38:46;17.70;79.50
69189;DHT22;56302;52.322;5.926;2022-09-09T10:41:15;17.80;79.30
69189;DHT22;56302;52.322;5.926;2022-09-09T10:52:37;17.90;79.00
69189;DHT22;56302;52.322;5.926;2022-09-09T10:55:16;17.90;79.40
69189;DHT22;56302;52.322;5.926;2022-09-09T10:57:48;17.80;78.10
69189;DHT22;56302;52.322;5.926;2022-09-09T11:00:20;17.70;78.60
69189;DHT22;56302;52.322;5.926;2022-09-09T11:03:05;17.70;78.40
69189;DHT22;56302;52.322;5.926;2022-09-09T11:08:09;17.50;78.60
69189;DHT22;56302;52.322;5.926;2022-09-09T11:15:55;17.40;79.70
69189;DHT22;56302;52.322;5.926;2022-09-09T11:18:23;17.40;79.70
69189;DHT22;56302;52.322;5.926;2022-09-09T11:20:52;17.50;79.80
69189;DHT22;56302;52.322;5.926;2022-09-09T11:23:48;17.50;80.10
69189;DHT22;56302;52.322;5.926;2022-09-09T11:26:18;17.60;79.80
69189;DHT22;56302;52.322;5.926;2022-09-09T11:29:35;17.70;78.80
69189;DHT22;56302;52.322;5.926;2022-09-09T11:32:34;17.80;78.90
69189;DHT22;56302;52.322;5.926;2022-09-09T11:35:31;17.80;78.40
69189;DHT22;56302;52.322;5.926;2022-09-09T11:41:01;17.40;81.00
69189;DHT22;56302;52.322;5.926;2022-09-09T11:46:04;17.20;82.70
69189;DHT22;56302;52.322;5.926;2022-09-09T11:48:35;17.10;83.70
69189;DHT22;56302;52.322;5.926;2022-09-09T11:51:10;17.20;84.20
69189;DHT22;56302;52.322;5.926;2022-09-09T11:53:56;17.20;84.70
69189;DHT22;56302;52.322;5.926;2022-09-09T11:56:29;17.30;84.20
69189;DHT22;56302;52.322;5.926;2022-09-09T11:59:16;17.70;84.40
69189;DHT22;56302;52.322;5.926;2022-09-09T12:01:45;18.00;84.20
69189;DHT22;56302;52.322;5.926;2022-09-09T12:04:30;17.90;83.00
69189;DHT22;56302;52.322;5.926;2022-09-09T12:07:41;17.70;83.40
69189;DHT22;56302;52.322;5.926;2022-09-09T12:12:33;17.50;84.80
69189;DHT22;56302;52.322;5.926;2022-09-09T12:17:42;17.80;86.00
69189;DHT22;56302;52.322;5.926;2022-09-09T12:25:25;18.70;83.30
69189;DHT22;56302;52.322;5.926;2022-09-09T12:31:14;18.50;82.80
69189;DHT22;56302;52.322;5.926;2022-09-09T12:33:20;18.50;83.00
69189;DHT22;56302;52.322;5.926;2022-09-09T12:35:57;18.30;82.20
69189;DHT22;56302;52.322;5.926;2022-09-09T12:38:34;18.10;82.40
69189;DHT22;56302;52.322;5.926;2022-09-09T12:41:01;18.00;82.10
69189;DHT22;56302;52.322;5.926;2022-09-09T12:43:28;17.80;83.50
69189;DHT22;56302;52.322;5.926;2022-09-09T12:46:00;17.90;84.00
69189;DHT22;56302;52.322;5.926;2022-09-09T12:48:36;17.90;82.60
69189;DHT22;56302;52.322;5.926;2022-09-09T12:51:05;17.90;82.90
69189;DHT22;56302;52.322;5.926;2022-09-09T12:53:35;17.90;82.80
69189;DHT22;56302;52.322;5.926;2022-09-09T12:56:06;18.00;82.80
69189;DHT22;56302;52.322;5.926;2022-09-09T12:58:34;18.00;82.70
69189;DHT22;56302;52.322;5.926;2022-09-09T13:01:02;18.10;81.80
69189;DHT22;56302;52.322;5.926;2022-09-09T13:03:32;18.20;81.50
69189;DHT22;56302;52.322;5.926;2022-09-09T13:06:10;18.30;81.10
69189;DHT22;56302;52.322;5.926;2022-09-09T13:08:37;18.30;80.90
69189;DHT22;56302;52.322;5.926;2022-09-09T13:11:07;18.20;80.70
69189;DHT22;56302;52.322;5.926;2022-09-09T13:13:36;18.20;80.20
69189;DHT22;56302;52.322;5.926;2022-09-09T13:16:04;18.20;80.50
69189;DHT22;56302;52.322;5.926;2022-09-09T13:18:35;18.20;80.50
69189;DHT22;56302;52.322;5.926;2022-09-09T13:21:01;18.30;81.00
69189;DHT22;56302;52.322;5.926;2022-09-09T13:23:30;18.20;80.00
69189;DHT22;56302;52.322;5.926;2022-09-09T13:26:39;18.10;80.50
69189;DHT22;56302;52.322;5.926;2022-09-09T13:28:48;18.20;80.70
69189;DHT22;56302;52.322;5.926;2022-09-09T13:31:24;18.20;80.90
69189;DHT22;56302;52.322;5.926;2022-09-09T13:33:53;18.20;80.10
69189;DHT22;56302;52.322;5.926;2022-09-09T13:36:31;18.20;80.40
69189;DHT22;56302;52.322;5.926;2022-09-09T13:38:58;18.20;80.30
69189;DHT22;56302;52.322;5.926;2022-09-09T13:41:42;18.30;80.70
69189;DHT22;56302;52.322;5.926;2022-09-09T13:44:27;18.40;80.40
69189;DHT22;56302;52.322;5.926;2022-09-09T13:47:21;18.50;79.70
69189;DHT22;56302;52.322;5.926;2022-09-09T13:49:48;18.50;79.40
69189;DHT22;56302;52.322;5.926;2022-09-09T13:52:16;18.40;78.40
69189;DHT22;56302;52.322;5.926;2022-09-09T13:54:47;18.40;78.60
69189;DHT22;56302;52.322;5.926;2022-09-09T13:57:19;18.50;79.20
69189;DHT22;56302;52.322;5.926;2022-09-09T13:59:46;18.40;78.00
69189;DHT22;56302;52.322;5.926;2022-09-09T14:02:12;18.30;78.50
69189;DHT22;56302;52.322;5.926;2022-09-09T14:04:37;18.30;78.50
69189;DHT22;56302;52.322;5.926;2022-09-09T14:07:03;18.40;78.70
69189;DHT22;56302;52.322;5.926;2022-09-09T14:09:29;18.40;79.20
69189;DHT22;56302;52.322;5.926;2022-09-09T14:11:54;18.20;79.70
69189;DHT22;56302;52.322;5.926;2022-09-09T14:14:23;18.20;80.50
69189;DHT22;56302;52.322;5.926;2022-09-09T14:16:48;18.20;80.40
69189;DHT22;56302;52.322;5.926;2022-09-09T14:19:14;18.30;80.70
69189;DHT22;56302;52.322;5.926;2022-09-09T14:21:39;18.30;79.90
69189;DHT22;56302;52.322;5.926;2022-09-09T14:24:05;18.40;80.30
69189;DHT22;56302;52.322;5.926;2022-09-09T14:26:31;18.40;80.80
69189;DHT22;56302;52.322;5.926;2022-09-09T14:28:57;18.50;79.70
69189;DHT22;56302;52.322;5.926;2022-09-09T14:31:23;18.50;79.70
69189;DHT22;56302;52.322;5.926;2022-09-09T14:33:55;18.50;79.10
69189;DHT22;56302;52.322;5.926;2022-09-09T14:36:21;18.40;79.30
69189;DHT22;56302;52.322;5.926;2022-09-09T14:38:47;18.50;79.80
69189;DHT22;56302;52.322;5.926;2022-09-09T14:41:15;18.50;79.20
69189;DHT22;56302;52.322;5.926;2022-09-09T14:43:45;18.60;78.80
69189;DHT22;56302;52.322;5.926;2022-09-09T14:46:16;18.70;79.30
69189;DHT22;56302;52.322;5.926;2022-09-09T14:48:42;18.70;78.00
69189;DHT22;56302;52.322;5.926;2022-09-09T14:51:12;18.70;77.30
69189;DHT22;56302;52.322;5.926;2022-09-09T14:53:39;18.60;77.00
69189;DHT22;56302;52.322;5.926;2022-09-09T14:56:10;18.60;78.40
69189;DHT22;56302;52.322;5.926;2022-09-09T14:58:36;18.60;78.00
69189;DHT22;56302;52.322;5.926;2022-09-09T15:01:07;18.60;78.50
69189;DHT22;56302;52.322;5.926;2022-09-09T15:03:35;18.50;78.30
69189;DHT22;56302;52.322;5.926;2022-09-09T15:06:09;18.40;78.80
69189;DHT22;56302;52.322;5.926;2022-09-09T15:08:36;18.30;79.30
69189;DHT22;56302;52.322;5.926;2022-09-09T15:11:04;18.40;79.20
69189;DHT22;56302;52.322;5.926;2022-09-09T15:13:30;18.30;78.80
69189;DHT22;56302;52.322;5.926;2022-09-09T15:15:55;18.30;79.00
69189;DHT22;56302;52.322;5.926;2022-09-09T15:18:23;18.30;78.60
69189;DHT22;56302;52.322;5.926;2022-09-09T15:20:48;18.30;79.10
69189;DHT22;56302;52.322;5.926;2022-09-09T15:23:14;18.30;78.50
69189;DHT22;56302;52.322;5.926;2022-09-09T15:25:53;18.20;78.70
69189;DHT22;56302;52.322;5.926;2022-09-09T15:28:19;18.20;79.60
69189;DHT22;56302;52.322;5.926;2022-09-09T15:30:50;18.20;79.40
69189;DHT22;56302;52.322;5.926;2022-09-09T15:33:18;18.10;79.30
69189;DHT22;56302;52.322;5.926;2022-09-09T15:35:43;18.10;79.40
69189;DHT22;56302;52.322;5.926;2022-09-09T15:38:09;18.10;79.40
69189;DHT22;56302;52.322;5.926;2022-09-09T15:40:35;18.10;79.10
69189;DHT22;56302;52.322;5.926;2022-09-09T15:43:00;18.00;79.20
69189;DHT22;56302;52.322;5.926;2022-09-09T15:45:27;18.00;79.50
69189;DHT22;56302;52.322;5.926;2022-09-09T15:47:52;18.00;79.10
69189;DHT22;56302;52.322;5.926;2022-09-09T15:50:18;18.00;79.20
69189;DHT22;56302;52.322;5.926;2022-09-09T15:52:43;18.00;79.40
69189;DHT22;56302;52.322;5.926;2022-09-09T15:55:10;18.00;79.80
69189;DHT22;56302;52.322;5.926;2022-09-09T15:57:35;18.00;79.50
69189;DHT22;56302;52.322;5.926;2022-09-09T16:00:03;17.90;79.50
69189;DHT22;56302;52.322;5.926;2022-09-09T16:02:29;17.90;79.70
69189;DHT22;56302;52.322;5.926;2022-09-09T16:04:56;17.90;80.00
69189;DHT22;56302;52.322;5.926;2022-09-09T16:07:22;17.90;80.30
69189;DHT22;56302;52.322;5.926;2022-09-09T16:09:48;17.90;80.20
69189;DHT22;56302;52.322;5.926;2022-09-09T16:12:15;17.80;80.40
69189;DHT22;56302;52.322;5.926;2022-09-09T16:14:41;17.80;81.20
69189;DHT22;56302;52.322;5.926;2022-09-09T16:17:07;17.70;81.60
69189;DHT22;56302;52.322;5.926;2022-09-09T16:19:33;17.70;82.30
69189;DHT22;56302;52.322;5.926;2022-09-09T16:22:00;17.60;82.70
69189;DHT22;56302;52.322;5.926;2022-09-09T16:24:26;17.60;83.10
69189;DHT22;56302;52.322;5.926;2022-09-09T16:26:53;17.60;83.80
69189;DHT22;56302;52.322;5.926;2022-09-09T16:29:20;17.60;84.00
69189;DHT22;56302;52.322;5.926;2022-09-09T16:31:47;17.60;84.30
69189;DHT22;56302;52.322;5.926;2022-09-09T16:34:14;17.50;84.50
69189;DHT22;56302;52.322;5.926;2022-09-09T16:36:41;17.50;85.30
69189;DHT22;56302;52.322;5.926;2022-09-09T16:39:18;17.40;86.90
69189;DHT22;56302;52.322;5.926;2022-09-09T16:41:45;17.50;86.00
69189;DHT22;56302;52.322;5.926;2022-09-09T16:44:13;17.60;85.70
69189;DHT22;56302;52.322;5.926;2022-09-09T16:46:42;17.70;85.50
69189;DHT22;56302;52.322;5.926;2022-09-09T16:49:10;17.80;85.30
69189;DHT22;56302;52.322;5.926;2022-09-09T16:51:41;17.80;85.30
69189;DHT22;56302;52.322;5.926;2022-09-09T16:54:08;17.90;85.20
69189;DHT22;56302;52.322;5.926;2022-09-09T16:56:36;18.00;85.40
69189;DHT22;56302;52.322;5.926;2022-09-09T16:59:05;18.10;85.50
69189;DHT22;56302;52.322;5.926;2022-09-09T17:01:34;18.10;85.50
69189;DHT22;56302;52.322;5.926;2022-09-09T17:04:04;18.10;85.40
69189;DHT22;56302;52.322;5.926;2022-09-09T17:06:32;18.10;85.10
69189;DHT22;56302;52.322;5.926;2022-09-09T17:09:04;18.10;85.20
69189;DHT22;56302;52.322;5.926;2022-09-09T17:11:30;18.10;85.10
69189;DHT22;56302;52.322;5.926;2022-09-09T17:13:57;18.00;85.30
69189;DHT22;56302;52.322;5.926;2022-09-09T17:16:25;18.00;85.10
69189;DHT22;56302;52.322;5.926;2022-09-09T17:18:53;17.90;85.40
69189;DHT22;56302;52.322;5.926;2022-09-09T17:21:22;17.90;85.50
69189;DHT22;56302;52.322;5.926;2022-09-09T17:23:49;17.90;85.90
69189;DHT22;56302;52.322;5.926;2022-09-09T17:26:16;17.80;85.90
69189;DHT22;56302;52.322;5.926;2022-09-09T17:28:43;17.80;85.70
69189;DHT22;56302;52.322;5.926;2022-09-09T17:31:12;17.70;85.80
69189;DHT22;56302;52.322;5.926;2022-09-09T17:33:41;17.70;85.80